Time;durP1;ratioP1;P1;durP2;ratioP2;P2;SDS_P1;SDS_P2;PMS_P1;PMS_P2;Temp;Humidity;BMP_temperature;BMP_pressure;BME280_temperature;BME280_humidity;BME280_pressure;Samples;Min_cycle;Max_cycle;Signal;HPM_P1;HPM_P2
2022/01/30 00:00:51;;;;;;;20.38;3.75;;;;;;;;;;5094370;28;20060;-81
2022/01/30 00:03:18;;;;;;;24.27;3.20;;;;;;;;;;5111683;28;20044;-81
2022/01/30 00:05:44;;;;;;;15.88;3.28;;;;;;;;;;5094303;28;20495;-81
2022/01/30 00:08:11;;;;;;;22.20;3.58;;;;;;;;;;5095001;28;20105;-81
2022/01/30 00:10:40;;;;;;;23.50;3.22;;;;;;;;;;5112633;28;20208;-82
2022/01/30 00:13:10;;;;;;;23.63;3.65;;;;;;;;;;5113631;28;20056;-80
2022/01/30 00:15:48;;;;;;;27.10;4.28;;;;;;;;;;5116734;27;20113;-81
2022/01/30 00:23:55;;;;;;;21.25;4.07;;;;;;;;;;5112664;27;20048;-81
2022/01/30 00:26:28;;;;;;;23.98;3.83;;;;;;;;;;5094138;27;20056;-81
2022/01/30 00:28:55;;;;;;;18.42;3.35;;;;;;;;;;5094729;28;20513;-81
2022/01/30 00:31:24;;;;;;;24.33;3.22;;;;;;;;;;5113239;28;20070;-81
2022/01/30 00:34:02;;;;;;;;;;;;;;;;;;5096509;28;20036;-81
2022/01/30 00:36:32;;;;;;;22.77;3.30;;;;;;;;;;5106319;27;46345;-81
2022/01/30 00:38:59;;;;;;;21.85;3.30;;;;;;;;;;5103791;28;20494;-81
2022/01/30 00:41:26;;;;;;;18.40;2.97;;;;;;;;;;5094489;28;20052;-81
2022/01/30 00:43:53;;;;;;;20.67;3.28;;;;;;;;;;5112239;28;20105;-81
2022/01/30 00:46:19;;;;;;;23.00;3.53;;;;;;;;;;5111461;27;20514;-81
2022/01/30 00:48:46;;;;;;;26.75;3.70;;;;;;;;;;5112818;28;20564;-80
2022/01/30 00:51:14;;;;;;;23.65;3.47;;;;;;;;;;5111862;28;20106;-81
2022/01/30 00:53:41;;;;;;;18.10;2.75;;;;;;;;;;5086728;28;20858;-81
2022/01/30 00:56:08;;;;;;;18.38;2.90;;;;;;;;;;5106249;27;20130;-81
2022/01/30 00:58:34;;;;;;;27.77;3.40;;;;;;;;;;5094568;28;20832;-82
2022/01/30 01:01:00;;;;;;;22.13;3.40;;;;;;;;;;5093921;28;20487;-80
2022/01/30 01:03:27;;;;;;;18.08;2.60;;;;;;;;;;5111945;28;20048;-79
2022/01/30 01:05:53;;;;;;;17.55;2.85;;;;;;;;;;5092981;28;20161;-79
2022/01/30 01:08:31;;;;;;;17.83;3.10;;;;;;;;;;5093793;28;20071;-79
2022/01/30 01:11:28;;;;;;;30.48;3.63;;;;;;;;;;5085451;28;20052;-79
2022/01/30 01:24:54;;;;;;;15.30;2.83;;;;;;;;;;5112342;27;20558;-79
2022/01/30 01:27:21;;;;;;;18.88;3.53;;;;;;;;;;5107646;28;20588;-79
2022/01/30 01:29:47;;;;;;;17.85;2.95;;;;;;;;;;5089926;28;20075;-79
2022/01/30 01:32:13;;;;;;;18.13;3.03;;;;;;;;;;5109943;27;20882;-79
2022/01/30 01:34:41;;;;;;;21.83;3.40;;;;;;;;;;5111831;28;20410;-79
2022/01/30 01:37:10;;;;;;;22.42;2.90;;;;;;;;;;5092868;28;20106;-79
2022/01/30 01:39:42;;;;;;;18.13;2.83;;;;;;;;;;5094141;28;20097;-79
2022/01/30 01:42:08;;;;;;;20.02;3.50;;;;;;;;;;5093027;28;20087;-78
2022/01/30 01:44:58;;;;;;;19.38;3.47;;;;;;;;;;5087743;28;20134;-78
2022/01/30 01:47:23;;;;;;;26.25;3.47;;;;;;;;;;5107678;28;20113;-78
2022/01/30 01:49:51;;;;;;;16.98;3.20;;;;;;;;;;5111716;28;20052;-79
2022/01/30 01:52:19;;;;;;;21.67;2.80;;;;;;;;;;5092161;28;20048;-79
2022/01/30 01:54:47;;;;;;;25.05;3.80;;;;;;;;;;5111124;28;20090;-78
2022/01/30 01:57:13;;;;;;;20.88;2.50;;;;;;;;;;5092683;27;20117;-78
2022/01/30 01:59:40;;;;;;;24.52;3.30;;;;;;;;;;5092875;28;20482;-78
2022/01/30 02:02:06;;;;;;;30.55;4.07;;;;;;;;;;5089678;28;20106;-79
2022/01/30 02:04:33;;;;;;;18.27;2.88;;;;;;;;;;5109916;28;20648;-79
2022/01/30 02:07:27;;;;;;;31.48;3.65;;;;;;;;;;5110899;28;20055;-79
2022/01/30 02:09:48;;;;;;;21.00;2.90;;;;;;;;;;5111064;28;20056;-78
2022/01/30 02:12:20;;;;;;;17.40;2.58;;;;;;;;;;5092827;28;20493;-78
2022/01/30 02:25:56;;;;;;;21.08;3.00;;;;;;;;;;5113448;28;20048;-78
2022/01/30 02:28:24;;;;;;;24.08;3.03;;;;;;;;;;5096507;28;20048;-78
2022/01/30 02:30:59;;;;;;;21.02;3.25;;;;;;;;;;5113896;27;20055;-77
2022/01/30 02:33:25;;;;;;;17.15;2.47;;;;;;;;;;5113685;28;20044;-78
2022/01/30 02:35:52;;;;;;;16.92;3.50;;;;;;;;;;5108880;28;20580;-79
2022/01/30 02:38:20;;;;;;;16.73;2.65;;;;;;;;;;5096067;28;20141;-78
2022/01/30 02:40:48;;;;;;;19.40;2.45;;;;;;;;;;5113491;28;20522;-78
2022/01/30 02:43:18;;;;;;;18.55;2.88;;;;;;;;;;5094858;28;20113;-78
2022/01/30 02:45:50;;;;;;;12.98;2.47;;;;;;;;;;5112606;28;20083;-78
2022/01/30 02:48:29;;;;;;;23.38;2.55;;;;;;;;;;5095728;28;20059;-78
2022/01/30 02:51:08;;;;;;;14.90;2.00;;;;;;;;;;5095306;28;20056;-78
2022/01/30 02:53:39;;;;;;;12.18;2.00;;;;;;;;;;5092899;28;20044;-78
2022/01/30 02:56:06;;;;;;;10.00;2.55;;;;;;;;;;5112898;28;20540;-78
2022/01/30 02:58:32;;;;;;;11.27;2.25;;;;;;;;;;5093934;28;20498;-78
2022/01/30 03:00:59;;;;;;;12.77;1.42;;;;;;;;;;5113421;28;20651;-78
2022/01/30 03:03:25;;;;;;;14.93;2.00;;;;;;;;;;5094964;27;20131;-78
2022/01/30 03:05:52;;;;;;;10.75;1.75;;;;;;;;;;5094981;28;20055;-78
2022/01/30 03:08:18;;;;;;;14.75;2.03;;;;;;;;;;5093701;28;20098;-79
2022/01/30 03:10:45;;;;;;;22.25;2.55;;;;;;;;;;5091715;28;20052;-78
2022/01/30 03:13:11;;;;;;;8.15;1.90;;;;;;;;;;5094818;28;20141;-78
2022/01/30 03:15:37;;;;;;;14.07;2.08;;;;;;;;;;5112925;28;20095;-78
2022/01/30 03:18:04;;;;;;;15.70;2.35;;;;;;;;;;5093606;27;20165;-79
2022/01/30 03:20:30;;;;;;;23.35;2.03;;;;;;;;;;5111956;28;20097;-78
2022/01/30 03:22:58;;;;;;;21.08;3.15;;;;;;;;;;5092585;28;20569;-79
2022/01/30 03:25:25;;;;;;;13.18;2.33;;;;;;;;;;5113170;28;20125;-78
2022/01/30 03:27:54;;;;;;;12.30;2.05;;;;;;;;;;5095991;28;20208;-79
2022/01/30 03:30:27;;;;;;;12.50;2.08;;;;;;;;;;5094467;28;20990;-78
2022/01/30 03:32:54;;;;;;;11.38;1.75;;;;;;;;;;5093376;28;20055;-78
2022/01/30 03:35:21;;;;;;;15.50;1.88;;;;;;;;;;5113580;27;20097;-78
2022/01/30 03:37:47;;;;;;;17.83;2.28;;;;;;;;;;5112748;27;20614;-77
2022/01/30 03:40:14;;;;;;;18.05;1.98;;;;;;;;;;5094609;28;20064;-78
2022/01/30 03:42:40;;;;;;;14.98;1.75;;;;;;;;;;5094439;28;20047;-77
2022/01/30 03:45:07;;;;;;;19.83;3.40;;;;;;;;;;5088667;28;20542;-78
2022/01/30 03:47:33;;;;;;;16.23;2.08;;;;;;;;;;5093674;27;20052;-79
2022/01/30 03:50:01;;;;;;;13.38;1.63;;;;;;;;;;5091722;28;20551;-78
2022/01/30 03:52:27;;;;;;;15.88;2.28;;;;;;;;;;5111149;28;20580;-78
2022/01/30 03:54:53;;;;;;;10.07;1.83;;;;;;;;;;5111651;28;20687;-78
2022/01/30 03:57:20;;;;;;;17.35;2.00;;;;;;;;;;5111444;28;20052;-78
2022/01/30 03:59:46;;;;;;;14.10;2.67;;;;;;;;;;5111947;28;20048;-78
2022/01/30 04:02:12;;;;;;;17.60;2.00;;;;;;;;;;5086862;28;20560;-78
2022/01/30 04:04:39;;;;;;;12.35;1.48;;;;;;;;;;5094121;28;20050;-79
2022/01/30 04:07:05;;;;;;;9.73;2.35;;;;;;;;;;5092970;27;20109;-78
2022/01/30 04:09:32;;;;;;;15.30;2.03;;;;;;;;;;5101717;28;20499;-77
2022/01/30 04:11:59;;;;;;;13.63;2.03;;;;;;;;;;5111393;27;20086;-78
2022/01/30 04:14:25;;;;;;;13.63;1.50;;;;;;;;;;5092793;28;20028;-79
2022/01/30 04:16:52;;;;;;;13.77;1.85;;;;;;;;;;5111870;27;20109;-79
2022/01/30 04:19:18;;;;;;;11.43;1.65;;;;;;;;;;5085393;28;20049;-78
2022/01/30 04:21:44;;;;;;;11.85;1.63;;;;;;;;;;5111219;27;20052;-77
2022/01/30 04:24:11;;;;;;;14.40;2.53;;;;;;;;;;5108559;27;20047;-78
2022/01/30 04:26:37;;;;;;;13.80;1.83;;;;;;;;;;5099102;27;20551;-78
2022/01/30 04:29:04;;;;;;;16.63;2.67;;;;;;;;;;5112209;27;20051;-78
2022/01/30 04:31:30;;;;;;;11.32;1.85;;;;;;;;;;5119763;27;20048;-78
2022/01/30 04:33:57;;;;;;;17.58;2.20;;;;;;;;;;5111544;27;20102;-77
2022/01/30 04:36:29;;;;;;;19.30;2.17;;;;;;;;;;5093586;28;20105;-78
2022/01/30 05:00:34;;;;;;;18.70;2.15;;;;;;;;;;5112438;27;20056;-81
2022/01/30 05:05:52;;;;;;;14.15;1.95;;;;;;;;;;5112944;27;20109;-79
2022/01/30 05:08:18;;;;;;;13.73;1.95;;;;;;;;;;5111239;27;20052;-79
2022/01/30 05:10:45;;;;;;;12.35;1.98;;;;;;;;;;5112024;27;20064;-79
2022/01/30 05:13:16;;;;;;;16.02;2.40;;;;;;;;;;5110830;27;20056;-79
2022/01/30 05:15:43;;;;;;;18.40;2.45;;;;;;;;;;5094412;28;20082;-79
2022/01/30 05:18:10;;;;;;;18.13;2.35;;;;;;;;;;5111191;27;20064;-78
2022/01/30 05:20:37;;;;;;;16.38;2.05;;;;;;;;;;5112421;27;20105;-79
2022/01/30 05:23:04;;;;;;;20.70;3.22;;;;;;;;;;5093188;28;20110;-78
2022/01/30 05:25:30;;;;;;;21.63;2.97;;;;;;;;;;5110504;27;20059;-79
2022/01/30 05:27:57;;;;;;;20.60;2.33;;;;;;;;;;5101052;28;20506;-80
2022/01/30 05:30:23;;;;;;;12.73;2.40;;;;;;;;;;5091737;27;20056;-79
2022/01/30 05:32:50;;;;;;;23.13;2.72;;;;;;;;;;5108847;27;20219;-79
2022/01/30 05:35:16;;;;;;;17.35;3.00;;;;;;;;;;5091681;27;20091;-78
2022/01/30 05:37:43;;;;;;;19.15;2.65;;;;;;;;;;5100261;28;20060;-79
2022/01/30 05:40:09;;;;;;;15.77;2.55;;;;;;;;;;5112132;27;20503;-79
2022/01/30 05:42:37;;;;;;;22.73;3.40;;;;;;;;;;5090608;27;20052;-79
2022/01/30 05:45:18;;;;;;;15.07;2.63;;;;;;;;;;5092800;28;20056;-79
2022/01/30 05:47:55;;;;;;;16.98;3.05;;;;;;;;;;5111118;27;20067;-79
2022/01/30 05:50:22;;;;;;;18.63;2.72;;;;;;;;;;5101543;27;20571;-79
2022/01/30 05:52:48;;;;;;;24.25;3.25;;;;;;;;;;5093586;28;20117;-79
2022/01/30 05:55:14;;;;;;;21.80;3.15;;;;;;;;;;5101242;28;20146;-79
2022/01/30 05:57:41;;;;;;;15.82;2.58;;;;;;;;;;5092029;27;20113;-79
2022/01/30 06:00:09;;;;;;;21.65;3.45;;;;;;;;;;5112193;27;20906;-78
2022/01/30 06:02:36;;;;;;;15.82;2.47;;;;;;;;;;5095194;27;20078;-78
2022/01/30 06:05:02;;;;;;;20.48;2.85;;;;;;;;;;5105164;28;20043;-78
2022/01/30 06:07:31;;;;;;;20.42;3.17;;;;;;;;;;5096744;27;20567;-78
2022/01/30 06:09:57;;;;;;;27.15;3.40;;;;;;;;;;5115381;27;20048;-78
2022/01/30 06:12:24;;;;;;;19.02;2.67;;;;;;;;;;5096006;28;20052;-77
2022/01/30 06:14:51;;;;;;;24.05;2.80;;;;;;;;;;5114494;27;20098;-78
2022/01/30 06:17:17;;;;;;;25.05;3.10;;;;;;;;;;5092383;28;20040;-78
2022/01/30 06:19:44;;;;;;;17.50;3.13;;;;;;;;;;5096424;27;20056;-78
2022/01/30 06:22:10;;;;;;;20.70;2.72;;;;;;;;;;5095672;28;20485;-79
2022/01/30 06:24:36;;;;;;;18.98;2.92;;;;;;;;;;5096519;27;20125;-78
2022/01/30 06:27:03;;;;;;;28.92;2.63;;;;;;;;;;5095762;28;20145;-78
2022/01/30 06:29:29;;;;;;;20.60;2.50;;;;;;;;;;5122977;27;20327;-79
2022/01/30 06:31:56;;;;;;;21.90;3.10;;;;;;;;;;5122268;27;20106;-79
2022/01/30 06:34:22;;;;;;;19.05;2.60;;;;;;;;;;5112918;27;20056;-79
2022/01/30 06:36:49;;;;;;;26.30;3.47;;;;;;;;;;5113138;27;20877;-79
2022/01/30 06:39:15;;;;;;;21.17;2.53;;;;;;;;;;5113831;27;20056;-79
2022/01/30 06:41:41;;;;;;;19.90;2.55;;;;;;;;;;5114064;27;20526;-78
2022/01/30 06:44:08;;;;;;;18.15;2.60;;;;;;;;;;5113250;27;20865;-78
2022/01/30 06:46:35;;;;;;;21.70;3.67;;;;;;;;;;5114048;27;20221;-79
2022/01/30 06:49:01;;;;;;;17.77;2.30;;;;;;;;;;5095756;28;20131;-79
2022/01/30 06:51:27;;;;;;;17.20;2.92;;;;;;;;;;5094046;28;20060;-78
2022/01/30 06:53:54;;;;;;;19.23;2.63;;;;;;;;;;5094937;27;20546;-79
2022/01/30 06:56:20;;;;;;;21.35;2.65;;;;;;;;;;5110655;27;20056;-77
2022/01/30 06:58:46;;;;;;;20.73;2.88;;;;;;;;;;5112132;27;20060;-78
2022/01/30 07:01:13;;;;;;;22.08;3.08;;;;;;;;;;5095993;28;20048;-79
2022/01/30 07:03:39;;;;;;;18.70;2.40;;;;;;;;;;5113363;27;20058;-79
2022/01/30 07:06:06;;;;;;;17.73;3.53;;;;;;;;;;5096215;28;20048;-78
2022/01/30 07:08:32;;;;;;;20.60;3.00;;;;;;;;;;5109377;27;20048;-79
2022/01/30 07:10:59;;;;;;;10.80;2.58;;;;;;;;;;5114600;27;20051;-79
2022/01/30 07:13:25;;;;;;;22.10;3.03;;;;;;;;;;5097965;28;20125;-77
2022/01/30 07:15:51;;;;;;;17.77;2.97;;;;;;;;;;5113393;27;22154;-81
2022/01/30 07:18:18;;;;;;;21.77;3.22;;;;;;;;;;5101064;28;20052;-80
2022/01/30 07:20:44;;;;;;;23.30;3.22;;;;;;;;;;5098320;27;20044;-78
2022/01/30 07:23:11;;;;;;;21.33;3.55;;;;;;;;;;5119114;27;20085;-80
2022/01/30 07:25:37;;;;;;;28.33;3.42;;;;;;;;;;5099798;28;20114;-80
2022/01/30 07:28:03;;;;;;;23.02;2.97;;;;;;;;;;5098261;27;20056;-80
2022/01/30 07:30:30;;;;;;;19.08;2.72;;;;;;;;;;5099054;28;20101;-80
2022/01/30 07:32:56;;;;;;;28.90;3.65;;;;;;;;;;5097677;27;20091;-80
2022/01/30 07:35:23;;;;;;;21.77;3.63;;;;;;;;;;5097699;28;20621;-80
2022/01/30 07:37:51;;;;;;;17.00;2.75;;;;;;;;;;5107747;27;20135;-80
2022/01/30 07:40:17;;;;;;;21.65;3.47;;;;;;;;;;5116231;27;20059;-80
2022/01/30 07:42:44;;;;;;;22.23;4.32;;;;;;;;;;5097847;28;20047;-80
2022/01/30 07:45:10;;;;;;;18.65;2.65;;;;;;;;;;5097253;27;20102;-80
2022/01/30 07:47:37;;;;;;;22.35;3.38;;;;;;;;;;5097559;28;20048;-79
2022/01/30 07:50:03;;;;;;;18.05;2.88;;;;;;;;;;5115843;27;20044;-80
2022/01/30 07:52:30;;;;;;;28.58;3.97;;;;;;;;;;5115648;27;20055;-80
2022/01/30 07:54:57;;;;;;;19.40;3.17;;;;;;;;;;5116724;27;20024;-79
2022/01/30 07:57:23;;;;;;;20.85;3.20;;;;;;;;;;5093155;28;20056;-79
2022/01/30 07:59:50;;;;;;;19.80;2.78;;;;;;;;;;5089056;28;20082;-80
2022/01/30 08:02:16;;;;;;;19.67;2.90;;;;;;;;;;5115405;27;20051;-80
2022/01/30 08:04:43;;;;;;;25.17;3.25;;;;;;;;;;5096576;28;20056;-81
2022/01/30 08:07:09;;;;;;;25.75;3.38;;;;;;;;;;5095025;27;20044;-80
2022/01/30 08:09:36;;;;;;;23.73;3.47;;;;;;;;;;5095700;28;20536;-79
2022/01/30 08:12:02;;;;;;;22.27;3.83;;;;;;;;;;5095856;28;20583;-80
2022/01/30 08:14:29;;;;;;;20.15;2.78;;;;;;;;;;5114627;27;20383;-80
2022/01/30 08:16:55;;;;;;;21.55;3.15;;;;;;;;;;5104494;27;20570;-80
2022/01/30 08:19:24;;;;;;;28.00;4.10;;;;;;;;;;5113428;27;20063;-80
2022/01/30 08:21:52;;;;;;;23.20;3.40;;;;;;;;;;5109352;27;20430;-81
2022/01/30 08:24:19;;;;;;;22.58;2.97;;;;;;;;;;5114636;27;20064;-80
2022/01/30 08:26:46;;;;;;;24.92;3.20;;;;;;;;;;5101269;28;20052;-80
2022/01/30 08:29:12;;;;;;;20.33;2.92;;;;;;;;;;5092673;28;20051;-81
2022/01/30 08:31:38;;;;;;;25.83;2.53;;;;;;;;;;5095520;27;20044;-80
2022/01/30 08:34:05;;;;;;;25.45;3.67;;;;;;;;;;5094861;28;20057;-79
2022/01/30 08:36:31;;;;;;;23.02;3.15;;;;;;;;;;5096410;27;20422;-79
2022/01/30 08:38:58;;;;;;;27.05;4.03;;;;;;;;;;5094824;28;20962;-80
2022/01/30 08:41:24;;;;;;;23.33;3.55;;;;;;;;;;5094177;28;20040;-80
2022/01/30 08:43:51;;;;;;;27.85;3.97;;;;;;;;;;5090051;27;20055;-79
2022/01/30 08:46:17;;;;;;;32.00;4.15;;;;;;;;;;5108685;27;20052;-78
2022/01/30 08:48:44;;;;;;;27.92;3.40;;;;;;;;;;5106163;27;20052;-78
2022/01/30 08:51:10;;;;;;;29.25;4.18;;;;;;;;;;5089144;28;20078;-79
2022/01/30 08:53:36;;;;;;;23.40;4.47;;;;;;;;;;5094316;28;20036;-79
2022/01/30 08:56:03;;;;;;;25.88;4.15;;;;;;;;;;5085235;27;20055;-79
2022/01/30 08:58:30;;;;;;;24.77;4.30;;;;;;;;;;5095613;28;20585;-79
2022/01/30 09:00:57;;;;;;;25.80;3.83;;;;;;;;;;5086936;27;21001;-79
2022/01/30 09:03:23;;;;;;;28.08;3.90;;;;;;;;;;5091071;28;20083;-79
2022/01/30 09:05:50;;;;;;;22.20;3.70;;;;;;;;;;5113361;27;20052;-79
2022/01/30 09:08:17;;;;;;;26.73;4.10;;;;;;;;;;5086255;27;20063;-79
2022/01/30 09:10:43;;;;;;;27.17;4.53;;;;;;;;;;5092993;28;20082;-78
2022/01/30 09:13:10;;;;;;;24.65;3.92;;;;;;;;;;5117400;27;20097;-80
2022/01/30 09:15:41;;;;;;;27.85;4.45;;;;;;;;;;5094632;28;20056;-79
2022/01/30 09:18:09;;;;;;;25.65;4.13;;;;;;;;;;5093879;28;20056;-79
2022/01/30 09:20:40;;;;;;;28.60;4.07;;;;;;;;;;5104624;28;20052;-79
2022/01/30 09:23:08;;;;;;;26.33;3.45;;;;;;;;;;5087276;28;20114;-79
2022/01/30 09:25:34;;;;;;;29.17;3.30;;;;;;;;;;5094385;27;20073;-79
2022/01/30 09:28:01;;;;;;;21.40;3.45;;;;;;;;;;5092608;28;20060;-80
2022/01/30 09:30:27;;;;;;;28.35;4.13;;;;;;;;;;5094353;27;20048;-78
2022/01/30 09:32:54;;;;;;;24.85;3.70;;;;;;;;;;5086975;28;20535;-77
2022/01/30 09:35:20;;;;;;;27.75;3.92;;;;;;;;;;5099894;27;20091;-78
2022/01/30 09:37:47;;;;;;;36.13;4.72;;;;;;;;;;5104795;28;20141;-78
2022/01/30 09:40:14;;;;;;;27.08;3.63;;;;;;;;;;5114296;27;20061;-78
2022/01/30 09:42:45;;;;;;;28.88;3.50;;;;;;;;;;5114149;27;20600;-79
2022/01/30 09:45:11;;;;;;;;;;;;;;;;;;5118564;27;20044;-78
2022/01/30 09:47:38;;;;;;;20.95;3.63;;;;;;;;;;5100998;27;46575;-78
2022/01/30 09:50:06;;;;;;;21.60;3.60;;;;;;;;;;5102266;28;20141;-77
2022/01/30 09:52:32;;;;;;;27.15;3.92;;;;;;;;;;5100660;27;20055;-78
2022/01/30 09:54:59;;;;;;;27.75;3.83;;;;;;;;;;5119158;27;20055;-78
2022/01/30 09:57:25;;;;;;;25.50;3.78;;;;;;;;;;5096592;28;20138;-78
2022/01/30 09:59:54;;;;;;;24.65;3.97;;;;;;;;;;5097389;27;20056;-79
2022/01/30 10:02:25;;;;;;;28.40;4.80;;;;;;;;;;5117377;27;20082;-79
2022/01/30 10:04:52;;;;;;;26.10;5.00;;;;;;;;;;5114560;27;20079;-78
2022/01/30 10:07:26;;;;;;;25.05;4.57;;;;;;;;;;5091499;27;20507;-77
2022/01/30 10:10:05;;;;;;;23.10;3.85;;;;;;;;;;5117291;27;20047;-78
2022/01/30 10:12:33;;;;;;;24.27;4.07;;;;;;;;;;5120855;27;20500;-79
2022/01/30 10:15:00;;;;;;;26.27;4.20;;;;;;;;;;5109822;27;20059;-78
2022/01/30 10:17:36;;;;;;;20.13;3.80;;;;;;;;;;5116087;27;20052;-78
2022/01/30 10:20:25;;;;;;;27.02;4.00;;;;;;;;;;5118347;27;20713;-78
2022/01/30 10:22:53;;;;;;;23.75;4.13;;;;;;;;;;5099432;28;20075;-78
2022/01/30 10:25:20;;;;;;;26.15;3.67;;;;;;;;;;5118754;27;20601;-79
2022/01/30 10:27:47;;;;;;;28.85;4.18;;;;;;;;;;5117109;27;20048;-78
2022/01/30 10:30:19;;;;;;;23.50;3.47;;;;;;;;;;5099969;28;20052;-79
2022/01/30 10:32:56;;;;;;;28.08;4.18;;;;;;;;;;5080540;27;20032;-78
2022/01/30 10:35:23;;;;;;;26.52;3.50;;;;;;;;;;5118260;27;20040;-78
2022/01/30 10:37:49;;;;;;;27.83;3.35;;;;;;;;;;5105932;28;20052;-78
2022/01/30 10:40:19;;;;;;;22.88;4.25;;;;;;;;;;5099940;28;20059;-79
2022/01/30 10:42:45;;;;;;;25.45;3.30;;;;;;;;;;5100804;27;20052;-78
2022/01/30 10:45:25;;;;;;;28.80;3.67;;;;;;;;;;5098474;28;20056;-77
2022/01/30 10:48:06;;;;;;;25.13;4.13;;;;;;;;;;5116369;27;20055;-79
2022/01/30 10:50:32;;;;;;;29.92;4.55;;;;;;;;;;5102863;28;20137;-79
2022/01/30 10:53:03;;;;;;;27.13;3.70;;;;;;;;;;5104089;28;20890;-79
2022/01/30 10:55:32;;;;;;;29.08;3.90;;;;;;;;;;5124514;27;20087;-78
2022/01/30 10:58:00;;;;;;;24.40;3.70;;;;;;;;;;5103584;27;20104;-78
2022/01/30 11:00:45;;;;;;;20.50;3.85;;;;;;;;;;5105807;27;20059;-78
2022/01/30 11:03:31;;;;;;;24.98;3.42;;;;;;;;;;5113441;27;20048;-79
2022/01/30 11:05:59;;;;;;;22.05;3.53;;;;;;;;;;5088860;27;20056;-78
2022/01/30 11:08:26;;;;;;;21.00;3.47;;;;;;;;;;5092573;27;20044;-79
2022/01/30 11:11:23;;;;;;;35.03;3.95;;;;;;;;;;5111715;27;20056;-79
2022/01/30 11:19:13;;;;;;;31.65;4.22;;;;;;;;;;5111640;27;20583;-78
2022/01/30 11:21:40;;;;;;;22.77;3.70;;;;;;;;;;5095885;27;20071;-77
2022/01/30 11:24:08;;;;;;;21.48;3.70;;;;;;;;;;5094693;27;20103;-78
2022/01/30 11:26:35;;;;;;;21.90;3.58;;;;;;;;;;5106917;27;20143;-78
2022/01/30 11:29:02;;;;;;;19.92;3.55;;;;;;;;;;5093228;28;20083;-78
2022/01/30 11:31:28;;;;;;;23.65;3.53;;;;;;;;;;5116168;27;20055;-79
2022/01/30 11:33:55;;;;;;;24.52;3.72;;;;;;;;;;5094012;27;20460;-79
2022/01/30 11:36:23;;;;;;;19.45;3.50;;;;;;;;;;5093410;27;20093;-78
2022/01/30 11:38:49;;;;;;;28.65;4.13;;;;;;;;;;5087201;28;20056;-78
2022/01/30 11:41:17;;;;;;;26.73;3.88;;;;;;;;;;5092503;27;20052;-78
2022/01/30 11:44:01;;;;;;;22.95;3.78;;;;;;;;;;5105910;27;20052;-79
2022/01/30 11:46:28;;;;;;;23.33;3.30;;;;;;;;;;5093709;27;20056;-78
2022/01/30 11:49:11;;;;;;;23.30;3.72;;;;;;;;;;5094581;28;20121;-79
2022/01/30 11:51:47;;;;;;;26.67;4.60;;;;;;;;;;5112466;27;20066;-79
2022/01/30 11:54:32;;;;;;;21.15;3.92;;;;;;;;;;5092428;28;20052;-79
2022/01/30 11:56:58;;;;;;;33.35;4.82;;;;;;;;;;5097659;27;20556;-78
2022/01/30 11:59:38;;;;;;;22.77;3.58;;;;;;;;;;5090505;27;20169;-79
2022/01/30 12:02:23;;;;;;;27.38;4.07;;;;;;;;;;5111193;27;20559;-78
2022/01/30 12:04:59;;;;;;;26.63;4.10;;;;;;;;;;5102111;27;20603;-78
2022/01/30 12:07:35;;;;;;;23.52;3.65;;;;;;;;;;5095141;27;20139;-77
2022/01/30 12:10:19;;;;;;;21.92;3.92;;;;;;;;;;5109434;27;20056;-78
2022/01/30 12:12:46;;;;;;;23.20;3.85;;;;;;;;;;5109345;27;20051;-78
2022/01/30 12:15:31;;;;;;;25.73;4.55;;;;;;;;;;5108095;27;20060;-78
2022/01/30 12:17:58;;;;;;;19.95;3.42;;;;;;;;;;5086720;27;20502;-79
2022/01/30 12:20:25;;;;;;;22.90;5.05;;;;;;;;;;5120094;27;20508;-79
2022/01/30 12:22:52;;;;;;;27.33;4.68;;;;;;;;;;5094721;27;20079;-78
2022/01/30 12:25:33;;;;;;;29.63;4.97;;;;;;;;;;5113244;27;20083;-79
2022/01/30 12:28:01;;;;;;;29.00;4.82;;;;;;;;;;5113346;27;20106;-78
2022/01/30 12:30:32;;;;;;;34.78;4.28;;;;;;;;;;5091809;28;20404;-79
2022/01/30 12:32:59;;;;;;;14.73;3.50;;;;;;;;;;5098341;27;20056;-79
2022/01/30 12:35:25;;;;;;;27.88;3.60;;;;;;;;;;5088702;28;20142;-76
2022/01/30 12:37:52;;;;;;;22.70;3.63;;;;;;;;;;5111139;27;20052;-77
2022/01/30 12:40:19;;;;;;;19.52;3.95;;;;;;;;;;5093440;28;20101;-78
2022/01/30 12:42:46;;;;;;;25.00;3.58;;;;;;;;;;5119302;27;20052;-77
2022/01/30 12:45:13;;;;;;;24.48;3.72;;;;;;;;;;5110357;27;20161;-78
2022/01/30 12:47:56;;;;;;;25.25;4.65;;;;;;;;;;5091551;28;20144;-76
2022/01/30 12:50:27;;;;;;;26.65;3.80;;;;;;;;;;5108712;27;20062;-78
2022/01/30 12:52:54;;;;;;;24.70;3.80;;;;;;;;;;5107792;27;20060;-78
2022/01/30 12:55:22;;;;;;;25.30;3.95;;;;;;;;;;5092094;28;20067;-78
2022/01/30 12:57:51;;;;;;;27.67;3.80;;;;;;;;;;5110560;27;20058;-77
2022/01/30 13:00:17;;;;;;;22.65;3.53;;;;;;;;;;5092787;28;20048;-78
2022/01/30 13:02:55;;;;;;;31.02;3.97;;;;;;;;;;5096989;28;20055;-78
2022/01/30 13:05:24;;;;;;;25.05;3.60;;;;;;;;;;5105050;27;20047;-78
2022/01/30 13:07:52;;;;;;;23.33;3.50;;;;;;;;;;5092002;27;20122;-78
2022/01/30 13:10:21;;;;;;;29.75;3.83;;;;;;;;;;5093998;27;20077;-78
2022/01/30 13:12:48;;;;;;;26.27;4.72;;;;;;;;;;5094175;28;20052;-78
2022/01/30 13:15:16;;;;;;;24.00;5.10;;;;;;;;;;5087745;27;20113;-78
2022/01/30 13:17:42;;;;;;;25.65;4.03;;;;;;;;;;5091652;28;20052;-78
2022/01/30 13:20:10;;;;;;;31.38;3.80;;;;;;;;;;5110234;27;20055;-78
2022/01/30 13:22:38;;;;;;;25.13;3.65;;;;;;;;;;5090564;27;20054;-78
2022/01/30 13:25:06;;;;;;;27.30;4.63;;;;;;;;;;5091712;27;20084;-78
2022/01/30 13:27:33;;;;;;;25.00;3.55;;;;;;;;;;5089773;28;20056;-80
2022/01/30 13:29:59;;;;;;;26.17;3.85;;;;;;;;;;5106921;27;20052;-79
2022/01/30 13:32:26;;;;;;;26.35;3.78;;;;;;;;;;5090228;27;20044;-77
2022/01/30 13:34:59;;;;;;;24.10;3.70;;;;;;;;;;5112686;27;20051;-78
2022/01/30 13:37:25;;;;;;;23.17;3.97;;;;;;;;;;5088270;27;20045;-78
2022/01/30 13:45:04;;;;;;;25.52;4.07;;;;;;;;;;5111949;27;45722;-79
2022/01/30 13:47:31;;;;;;;21.08;3.72;;;;;;;;;;5093033;27;20105;-79
2022/01/30 13:49:58;;;;;;;21.58;3.17;;;;;;;;;;5094404;27;20110;-78
2022/01/30 13:52:31;;;;;;;20.38;3.50;;;;;;;;;;5111973;27;20064;-78
2022/01/30 13:54:58;;;;;;;23.00;3.33;;;;;;;;;;5109638;27;20103;-77
2022/01/30 13:57:28;;;;;;;20.95;4.03;;;;;;;;;;5090818;27;20083;-77
2022/01/30 14:00:03;;;;;;;26.80;3.85;;;;;;;;;;5104550;27;20509;-78
2022/01/30 14:02:33;;;;;;;21.90;4.13;;;;;;;;;;5094236;28;20044;-79
2022/01/30 14:05:18;;;;;;;15.45;3.40;;;;;;;;;;5092547;28;20515;-79
2022/01/30 14:07:44;;;;;;;25.13;4.05;;;;;;;;;;5104175;27;20059;-78
2022/01/30 14:10:11;;;;;;;25.65;4.18;;;;;;;;;;5094714;27;20110;-78
2022/01/30 14:12:39;;;;;;;18.38;3.47;;;;;;;;;;5090785;27;20070;-79
2022/01/30 14:15:11;;;;;;;23.33;4.35;;;;;;;;;;5086236;28;20084;-78
2022/01/30 14:17:41;;;;;;;17.70;3.38;;;;;;;;;;5110285;27;20606;-79
2022/01/30 14:20:11;;;;;;;19.17;3.97;;;;;;;;;;5091626;28;20047;-78
2022/01/30 14:22:37;;;;;;;27.10;4.10;;;;;;;;;;5095657;27;20052;-77
2022/01/30 14:25:11;;;;;;;30.90;4.75;;;;;;;;;;5113267;27;20082;-78
2022/01/30 14:27:38;;;;;;;25.98;4.50;;;;;;;;;;5090962;27;20060;-78
2022/01/30 14:30:08;;;;;;;25.02;3.88;;;;;;;;;;5093999;27;20080;-77
2022/01/30 14:32:36;;;;;;;20.88;3.88;;;;;;;;;;5095494;27;20044;-77
2022/01/30 14:35:04;;;;;;;21.25;3.38;;;;;;;;;;5110625;27;20104;-77
2022/01/30 14:37:31;;;;;;;17.67;3.33;;;;;;;;;;5093676;28;20044;-78
2022/01/30 14:39:59;;;;;;;23.63;3.65;;;;;;;;;;5092930;27;20142;-76
2022/01/30 14:42:25;;;;;;;20.48;3.50;;;;;;;;;;5111825;27;20048;-77
2022/01/30 14:44:52;;;;;;;23.10;3.22;;;;;;;;;;5110883;27;20052;-77
2022/01/30 14:47:18;;;;;;;20.08;3.50;;;;;;;;;;5104727;27;20055;-77
2022/01/30 14:49:45;;;;;;;19.70;4.10;;;;;;;;;;5100496;27;20056;-77
2022/01/30 14:52:12;;;;;;;23.08;4.57;;;;;;;;;;5092328;27;20101;-76
2022/01/30 14:54:38;;;;;;;26.63;4.40;;;;;;;;;;5111223;27;20052;-77
2022/01/30 14:57:05;;;;;;;24.10;5.15;;;;;;;;;;5110341;27;20048;-77
2022/01/30 14:59:32;;;;;;;22.63;4.10;;;;;;;;;;5092749;28;20055;-77
2022/01/30 15:01:58;;;;;;;22.27;3.72;;;;;;;;;;5093630;27;20080;-77
2022/01/30 15:04:25;;;;;;;34.33;4.82;;;;;;;;;;5086559;28;20104;-77
2022/01/30 15:06:51;;;;;;;30.90;5.13;;;;;;;;;;5092404;27;20056;-77
2022/01/30 15:09:18;;;;;;;22.23;4.57;;;;;;;;;;5102987;27;20052;-77
2022/01/30 15:11:45;;;;;;;23.58;3.75;;;;;;;;;;5111272;27;20048;-77
2022/01/30 15:14:12;;;;;;;26.88;4.03;;;;;;;;;;5110190;27;20582;-77
2022/01/30 15:16:49;;;;;;;17.52;3.08;;;;;;;;;;5092720;28;20515;-77
2022/01/30 15:19:17;;;;;;;26.80;3.75;;;;;;;;;;5118092;27;20124;-76
2022/01/30 15:21:45;;;;;;;24.83;3.60;;;;;;;;;;5102102;27;20606;-77
2022/01/30 15:24:11;;;;;;;22.90;4.05;;;;;;;;;;5092107;27;20511;-77
2022/01/30 15:26:38;;;;;;;19.92;2.95;;;;;;;;;;5110583;27;20048;-77
2022/01/30 15:29:05;;;;;;;26.60;3.53;;;;;;;;;;5119201;27;20047;-77
2022/01/30 15:31:32;;;;;;;24.00;3.85;;;;;;;;;;5086725;27;20093;-77
2022/01/30 15:33:59;;;;;;;23.30;4.00;;;;;;;;;;5092486;27;20056;-77
2022/01/30 15:36:26;;;;;;;23.48;3.97;;;;;;;;;;5088727;28;20178;-77
2022/01/30 15:38:52;;;;;;;27.02;5.18;;;;;;;;;;5104619;27;20588;-77
2022/01/30 15:41:19;;;;;;;20.92;3.58;;;;;;;;;;5093659;27;20051;-77